Time;durP1;ratioP1;P1;durP2;ratioP2;P2;SDS_P1;SDS_P2;PMS_P1;PMS_P2;Temp;Humidity;BMP_temperature;BMP_pressure;BME280_temperature;BME280_humidity;BME280_pressure;Samples;Min_cycle;Max_cycle;Signal;HPM_P1;HPM_P2
2023/03/11 00:00:37;;;;;;;0.20;0.20;;;0.50;99.90;;;;;;5017206;28;20979;-71
2023/03/11 00:03:06;;;;;;;0.40;0.40;;;0.60;99.90;;;;;;5023775;28;20450;-72
2023/03/11 00:05:40;;;;;;;0.20;0.20;;;0.70;99.90;;;;;;5026298;28;20430;-73
2023/03/11 00:08:09;;;;;;;0.20;0.20;;;0.70;99.90;;;;;;5015545;28;20488;-73
2023/03/11 00:10:39;;;;;;;0.20;0.20;;;0.80;99.90;;;;;;5025728;28;20439;-74
2023/03/11 00:13:14;;;;;;;0.10;0.10;;;0.80;99.90;;;;;;5024468;28;20906;-73
2023/03/11 00:15:43;;;;;;;0.10;0.10;;;0.90;99.90;;;;;;5027632;28;20427;-73
2023/03/11 00:18:10;;;;;;;0.10;0.10;;;1.00;99.90;;;;;;5023714;28;20427;-74
2023/03/11 00:20:39;;;;;;;0.17;0.17;;;1.20;99.90;;;;;;5019233;28;20443;-73
2023/03/11 00:23:07;;;;;;;0.30;0.30;;;1.20;99.90;;;;;;5021263;28;20431;-73
2023/03/11 00:25:36;;;;;;;0.20;0.20;;;1.20;99.90;;;;;;5022742;28;20430;-72
2023/03/11 00:28:06;;;;;;;0.10;0.10;;;1.30;99.90;;;;;;5026740;28;20509;-74
2023/03/11 00:30:33;;;;;;;0.10;0.10;;;1.30;99.90;;;;;;5028341;28;20427;-75
2023/03/11 00:32:59;;;;;;;1.40;0.30;;;1.30;99.90;;;;;;5026329;28;20434;-73
2023/03/11 00:35:30;;;;;;;0.10;0.10;;;1.30;99.90;;;;;;5026459;28;20517;-73
2023/03/11 00:37:59;;;;;;;0.20;0.20;;;1.30;99.90;;;;;;5026101;28;20423;-73
2023/03/11 00:40:29;;;;;;;0.10;0.10;;;1.30;99.90;;;;;;5025496;28;20790;-74
2023/03/11 00:42:56;;;;;;;0.10;0.10;;;1.40;99.90;;;;;;5026287;28;20842;-73
2023/03/11 00:45:24;;;;;;;0.10;0.10;;;1.40;99.90;;;;;;5026070;28;20442;-73
2023/03/11 00:47:52;;;;;;;0.10;0.10;;;1.40;99.90;;;;;;5025830;28;20422;-74
2023/03/11 00:50:33;;;;;;;0.30;0.30;;;1.40;99.90;;;;;;5027286;28;20426;-73
2023/03/11 00:53:00;;;;;;;0.28;0.28;;;1.40;99.90;;;;;;5025645;28;20942;-73
2023/03/11 00:55:30;;;;;;;0.10;0.10;;;1.40;99.90;;;;;;5024105;28;21311;-72
2023/03/11 00:57:59;;;;;;;0.10;0.10;;;1.40;99.90;;;;;;5027329;28;20458;-73
2023/03/11 01:00:28;;;;;;;0.70;0.47;;;1.40;99.90;;;;;;5026970;28;20485;-74
2023/03/11 01:02:55;;;;;;;0.20;0.20;;;1.30;99.90;;;;;;5027766;28;20431;-73
2023/03/11 01:05:27;;;;;;;0.10;0.10;;;1.30;99.90;;;;;;5027508;28;20437;-74
2023/03/11 01:07:54;;;;;;;0.10;0.10;;;1.40;99.90;;;;;;5009053;28;20444;-74
2023/03/11 01:10:21;;;;;;;0.10;0.10;;;1.40;99.90;;;;;;5022450;28;20426;-74
2023/03/11 01:12:48;;;;;;;0.10;0.10;;;1.40;99.90;;;;;;5025694;28;20458;-73
2023/03/11 01:15:35;;;;;;;0.10;0.10;;;1.40;99.90;;;;;;5023310;28;21025;-74
2023/03/11 01:18:03;;;;;;;0.10;0.10;;;1.40;99.90;;;;;;5021941;28;20443;-73
2023/03/11 01:20:30;;;;;;;0.10;0.10;;;1.50;99.90;;;;;;5026900;28;20914;-74
2023/03/11 01:22:56;;;;;;;1.48;0.80;;;1.50;99.90;;;;;;5024129;28;20438;-74
2023/03/11 01:25:24;;;;;;;0.10;0.10;;;1.50;99.90;;;;;;5026872;28;20465;-74
2023/03/11 01:27:50;;;;;;;0.10;0.10;;;1.40;99.90;;;;;;5032829;28;20497;-74
2023/03/11 01:30:20;;;;;;;0.20;0.20;;;1.40;99.90;;;;;;5021409;28;20435;-73
2023/03/11 01:32:51;;;;;;;0.20;0.20;;;1.50;99.90;;;;;;5019175;28;20439;-74
2023/03/11 01:35:21;;;;;;;0.40;0.40;;;1.40;99.90;;;;;;5023841;28;20936;-74
2023/03/11 01:37:51;;;;;;;0.20;0.20;;;1.40;99.90;;;;;;5026328;28;20433;-74
2023/03/11 01:40:39;;;;;;;0.20;0.20;;;1.30;99.90;;;;;;5020455;28;20445;-73
2023/03/11 01:43:44;;;;;;;0.10;0.10;;;1.30;99.90;;;;;;5018282;28;20805;-74
2023/03/11 01:46:15;;;;;;;0.20;0.20;;;1.20;99.90;;;;;;5030319;28;20438;-73
2023/03/11 01:49:02;;;;;;;3.60;0.80;;;1.20;99.90;;;;;;5015945;28;20442;-74
2023/03/11 01:51:39;;;;;;;0.30;0.30;;;1.30;99.90;;;;;;5031556;28;20427;-74
2023/03/11 01:54:11;;;;;;;0.20;0.20;;;1.30;99.90;;;;;;5028211;28;20422;-74
2023/03/11 01:56:40;;;;;;;0.10;0.10;;;1.30;99.90;;;;;;5030806;28;20501;-74
2023/03/11 01:59:10;;;;;;;0.10;0.10;;;1.30;99.90;;;;;;5030550;28;20454;-74
2023/03/11 02:01:46;;;;;;;2.60;0.37;;;1.40;99.90;;;;;;5020044;28;21015;-74
2023/03/11 02:04:16;;;;;;;0.10;0.10;;;1.40;99.90;;;;;;5025570;28;20427;-74
2023/03/11 02:06:52;;;;;;;0.10;0.10;;;1.40;99.90;;;;;;5027705;28;20546;-73
2023/03/11 02:09:22;;;;;;;0.25;0.25;;;1.40;99.90;;;;;;5029356;28;20428;-74
2023/03/11 02:11:49;;;;;;;0.15;0.15;;;1.40;99.90;;;;;;5024336;28;20940;-74
2023/03/11 02:14:16;;;;;;;0.20;0.20;;;1.40;99.90;;;;;;5027759;28;20430;-74
2023/03/11 02:16:43;;;;;;;0.10;0.10;;;1.40;99.90;;;;;;5023826;28;20521;-74
2023/03/11 02:19:24;;;;;;;0.17;0.17;;;1.40;99.90;;;;;;5029123;28;20500;-74
2023/03/11 02:21:51;;;;;;;0.10;0.10;;;1.40;99.90;;;;;;5023547;28;20479;-74
2023/03/11 02:24:45;;;;;;;1.70;0.50;;;1.30;99.90;;;;;;5027219;28;20504;-74
2023/03/11 02:27:15;;;;;;;0.10;0.10;;;1.30;99.90;;;;;;5026883;28;20470;-74
2023/03/11 02:29:46;;;;;;;0.20;0.20;;;1.30;99.90;;;;;;5026755;28;20435;-74
2023/03/11 02:32:13;;;;;;;0.20;0.20;;;1.20;99.90;;;;;;5028464;28;20440;-74
2023/03/11 02:34:40;;;;;;;0.20;0.20;;;1.20;99.90;;;;;;5028633;28;20431;-74
2023/03/11 02:37:13;;;;;;;0.20;0.20;;;1.20;99.90;;;;;;5028963;28;20521;-74
2023/03/11 02:39:49;;;;;;;0.10;0.10;;;1.10;99.90;;;;;;5026851;28;20931;-74
2023/03/11 02:42:26;;;;;;;0.20;0.20;;;1.10;99.90;;;;;;5024247;28;20479;-74
2023/03/11 02:45:21;;;;;;;0.20;0.20;;;1.10;99.90;;;;;;5029979;28;20431;-74
2023/03/11 02:47:48;;;;;;;1.20;0.30;;;1.10;99.90;;;;;;5022989;28;20435;-74
2023/03/11 02:50:17;;;;;;;0.10;0.10;;;1.10;99.90;;;;;;5029146;28;20426;-74
2023/03/11 02:52:44;;;;;;;0.20;0.20;;;1.10;99.90;;;;;;5019829;28;20435;-74
2023/03/11 02:55:11;;;;;;;0.13;0.13;;;1.20;99.90;;;;;;5017297;28;20435;-74
2023/03/11 02:57:38;;;;;;;0.10;0.10;;;1.20;99.90;;;;;;5025323;28;20446;-74
2023/03/11 03:00:12;;;;;;;0.70;0.40;;;1.20;99.90;;;;;;5028365;28;20463;-74
2023/03/11 03:02:39;;;;;;;0.10;0.10;;;1.20;99.90;;;;;;5028761;28;20473;-74
2023/03/11 03:05:09;;;;;;;0.20;0.20;;;1.20;99.90;;;;;;5024483;28;20620;-74
2023/03/11 03:07:36;;;;;;;0.20;0.20;;;1.20;99.90;;;;;;5021619;28;20601;-74
2023/03/11 03:10:05;;;;;;;0.50;0.20;;;1.20;99.90;;;;;;5029477;28;20523;-74
2023/03/11 03:12:32;;;;;;;0.10;0.10;;;1.30;99.90;;;;;;5018738;28;20895;-74
2023/03/11 03:14:58;;;;;;;0.10;0.10;;;1.30;99.90;;;;;;5028417;28;20462;-74
2023/03/11 03:17:25;;;;;;;0.70;0.17;;;1.30;99.90;;;;;;5024801;28;20917;-74
2023/03/11 03:19:52;;;;;;;0.20;0.20;;;1.30;99.90;;;;;;5027713;28;20438;-74
2023/03/11 03:22:19;;;;;;;0.30;0.30;;;1.30;99.90;;;;;;5029906;28;20434;-74
2023/03/11 03:24:45;;;;;;;0.20;0.20;;;1.30;99.90;;;;;;5026103;28;20442;-74
2023/03/11 03:27:12;;;;;;;0.20;0.20;;;1.20;99.90;;;;;;5024804;28;20478;-74
2023/03/11 03:29:39;;;;;;;0.17;0.17;;;1.20;99.90;;;;;;5028239;28;20813;-74
2023/03/11 03:32:05;;;;;;;0.20;0.20;;;1.10;99.90;;;;;;5027199;28;20488;-74
2023/03/11 03:34:32;;;;;;;0.90;0.55;;;0.90;99.90;;;;;;5024001;28;20428;-74
2023/03/11 03:36:59;;;;;;;0.20;0.20;;;0.80;99.90;;;;;;5027888;28;20571;-74
2023/03/11 03:39:26;;;;;;;1.02;0.25;;;0.80;99.90;;;;;;5033147;28;20443;-74
2023/03/11 03:41:56;;;;;;;0.22;0.22;;;0.80;99.90;;;;;;5012997;28;20439;-74
2023/03/11 03:44:22;;;;;;;0.25;0.17;;;0.70;99.90;;;;;;5027786;28;20453;-74
2023/03/11 03:46:49;;;;;;;0.37;0.37;;;0.60;99.90;;;;;;5027052;28;20433;-74
2023/03/11 03:49:16;;;;;;;0.20;0.20;;;0.60;99.90;;;;;;5024430;28;20457;-74
2023/03/11 03:51:43;;;;;;;0.20;0.20;;;0.50;99.90;;;;;;5027724;28;20518;-74
2023/03/11 03:54:09;;;;;;;0.20;0.20;;;0.50;99.90;;;;;;5023086;28;20450;-74
2023/03/11 03:56:36;;;;;;;0.20;0.20;;;0.50;99.90;;;;;;5026531;28;20442;-74
2023/03/11 03:59:03;;;;;;;0.20;0.20;;;0.50;99.90;;;;;;5024515;28;20452;-74
2023/03/11 04:01:29;;;;;;;0.17;0.17;;;0.60;99.90;;;;;;5027481;28;20473;-74
2023/03/11 04:03:56;;;;;;;0.20;0.20;;;0.50;99.90;;;;;;5022853;28;20441;-74
2023/03/11 04:06:26;;;;;;;0.50;0.50;;;0.50;99.90;;;;;;5027624;28;20426;-74
2023/03/11 04:08:53;;;;;;;0.10;0.10;;;0.50;99.90;;;;;;5024420;28;20445;-72
2023/03/11 04:11:21;;;;;;;0.10;0.10;;;0.50;99.90;;;;;;5022499;28;20549;-74
2023/03/11 04:13:50;;;;;;;0.10;0.10;;;0.50;99.90;;;;;;5021956;28;20433;-74
2023/03/11 04:16:20;;;;;;;0.50;0.50;;;0.50;99.90;;;;;;5026332;28;20425;-74
2023/03/11 04:18:47;;;;;;;0.30;0.20;;;0.50;99.90;;;;;;5021189;28;20782;-74
2023/03/11 04:21:16;;;;;;;0.30;0.30;;;0.60;99.90;;;;;;5027425;28;20485;-74
2023/03/11 04:23:43;;;;;;;0.10;0.10;;;0.60;99.90;;;;;;5019749;28;20427;-74
2023/03/11 04:26:10;;;;;;;0.10;0.10;;;0.70;99.90;;;;;;5028499;28;20465;-74
2023/03/11 04:28:37;;;;;;;0.10;0.10;;;0.70;99.90;;;;;;5021976;28;20432;-74
2023/03/11 04:31:04;;;;;;;0.20;0.20;;;0.70;99.90;;;;;;5026902;28;21068;-74
2023/03/11 04:33:31;;;;;;;0.20;0.20;;;0.70;99.90;;;;;;5025482;28;20466;-74
2023/03/11 04:35:58;;;;;;;0.13;0.13;;;0.70;99.90;;;;;;5021275;28;20439;-74
2023/03/11 04:38:25;;;;;;;0.30;0.30;;;0.70;99.90;;;;;;5011105;28;20483;-74
2023/03/11 04:40:51;;;;;;;0.10;0.10;;;0.70;99.90;;;;;;5027188;28;20441;-74
2023/03/11 04:43:18;;;;;;;0.20;0.20;;;0.70;99.90;;;;;;5022416;28;20511;-74
2023/03/11 04:45:49;;;;;;;0.20;0.20;;;0.70;99.90;;;;;;5027312;28;20482;-74
2023/03/11 04:48:16;;;;;;;0.10;0.10;;;0.70;99.90;;;;;;5028624;28;20510;-74
2023/03/11 04:50:42;;;;;;;0.10;0.10;;;0.70;99.90;;;;;;5024048;28;20442;-74
2023/03/11 04:53:09;;;;;;;0.40;0.30;;;0.70;99.90;;;;;;5025568;28;20427;-73
2023/03/11 04:55:36;;;;;;;0.20;0.20;;;0.70;99.90;;;;;;5022330;28;20428;-74
2023/03/11 04:58:08;;;;;;;0.25;0.25;;;0.70;99.90;;;;;;5021834;28;20429;-74
2023/03/11 05:00:35;;;;;;;0.40;0.40;;;0.60;99.90;;;;;;5023810;28;20431;-74
2023/03/11 05:03:01;;;;;;;0.20;0.20;;;0.60;99.90;;;;;;5024788;28;20430;-74
2023/03/11 05:05:31;;;;;;;0.10;0.10;;;0.60;99.90;;;;;;5024599;28;20434;-74
2023/03/11 05:07:57;;;;;;;0.40;0.40;;;0.50;99.90;;;;;;5025058;28;20448;-74
2023/03/11 05:10:24;;;;;;;0.20;0.20;;;0.40;99.90;;;;;;5023861;28;20888;-74
2023/03/11 05:12:51;;;;;;;0.40;0.40;;;0.30;99.90;;;;;;5022094;28;20438;-74
2023/03/11 05:15:18;;;;;;;0.10;0.10;;;0.20;99.90;;;;;;5027179;28;20452;-74
2023/03/11 05:17:45;;;;;;;0.32;0.32;;;0.10;99.90;;;;;;5032144;28;20465;-75
2023/03/11 05:20:12;;;;;;;0.10;0.10;;;0.00;99.90;;;;;;5030381;28;20426;-74
2023/03/11 05:22:42;;;;;;;0.38;0.38;;;-0.10;99.90;;;;;;5023789;28;20937;-75
2023/03/11 05:25:11;;;;;;;0.20;0.20;;;-0.10;99.90;;;;;;5031199;28;20510;-74
2023/03/11 05:27:38;;;;;;;0.17;0.17;;;-0.20;99.90;;;;;;5019314;28;20428;-74
2023/03/11 05:30:05;;;;;;;0.20;0.20;;;-0.20;99.90;;;;;;5023733;28;20426;-74
2023/03/11 05:32:32;;;;;;;1.30;0.40;;;-0.20;99.90;;;;;;5017649;28;20847;-77
2023/03/11 05:35:00;;;;;;;0.50;0.50;;;-0.30;99.90;;;;;;5052155;28;20453;-74
2023/03/11 05:37:29;;;;;;;0.38;0.38;;;-0.40;99.90;;;;;;5032880;28;20437;-74
2023/03/11 05:39:56;;;;;;;0.93;0.38;;;-0.60;99.90;;;;;;5030445;28;20546;-74
2023/03/11 05:42:23;;;;;;;0.10;0.10;;;-0.90;99.90;;;;;;5032556;28;20435;-74
2023/03/11 05:44:49;;;;;;;0.20;0.20;;;-1.10;99.90;;;;;;5018083;28;20523;-74
2023/03/11 05:47:17;;;;;;;0.43;0.43;;;-1.30;99.90;;;;;;5022827;28;20917;-75
2023/03/11 05:49:47;;;;;;;0.32;0.32;;;-1.50;99.90;;;;;;5020199;28;20436;-74
2023/03/11 05:52:14;;;;;;;0.15;0.15;;;-1.70;99.90;;;;;;5012410;28;20918;-74
2023/03/11 05:54:41;;;;;;;0.45;0.45;;;-1.80;99.90;;;;;;5011376;28;20436;-74
2023/03/11 05:57:11;;;;;;;0.40;0.30;;;-2.00;99.90;;;;;;5023443;28;20437;-74
2023/03/11 05:59:38;;;;;;;0.50;0.28;;;-2.20;99.90;;;;;;5032287;28;20817;-74
2023/03/11 06:02:04;;;;;;;1.70;0.50;;;-2.40;99.90;;;;;;5031051;28;20545;-74
2023/03/11 06:04:31;;;;;;;0.15;0.15;;;-2.40;99.90;;;;;;5025968;28;20441;-74
2023/03/11 06:06:58;;;;;;;0.40;0.40;;;-2.40;99.90;;;;;;5032926;28;20492;-75
2023/03/11 06:09:25;;;;;;;0.40;0.40;;;-2.30;99.90;;;;;;5028815;28;20795;-75
2023/03/11 06:11:52;;;;;;;0.30;0.30;;;-2.30;99.90;;;;;;5028726;28;21078;-75
2023/03/11 06:14:22;;;;;;;0.20;0.20;;;-2.10;99.90;;;;;;5027844;28;20886;-74
2023/03/11 06:16:49;;;;;;;0.35;0.35;;;-2.00;99.90;;;;;;5031267;28;20427;-74
2023/03/11 06:19:16;;;;;;;0.30;0.30;;;-1.90;99.90;;;;;;5017409;28;20447;-74
2023/03/11 06:21:42;;;;;;;0.50;0.50;;;-1.70;99.90;;;;;;5025213;28;20427;-75
2023/03/11 06:24:09;;;;;;;0.20;0.20;;;-1.60;99.90;;;;;;5029206;28;20917;-74
2023/03/11 06:26:36;;;;;;;0.20;0.20;;;-1.60;99.90;;;;;;5031037;28;20509;-75
2023/03/11 06:29:03;;;;;;;0.20;0.20;;;-1.60;99.90;;;;;;5020312;28;20522;-75
2023/03/11 06:31:32;;;;;;;0.10;0.10;;;-1.60;99.90;;;;;;5029144;28;20445;-75
2023/03/11 06:33:59;;;;;;;0.90;0.20;;;-1.60;99.90;;;;;;5029573;28;20430;-75
2023/03/11 06:36:25;;;;;;;0.40;0.40;;;-1.40;99.90;;;;;;5026837;28;20431;-75
2023/03/11 06:38:53;;;;;;;0.10;0.10;;;-1.20;99.90;;;;;;5023971;28;20984;-75
2023/03/11 06:41:20;;;;;;;0.30;0.30;;;-1.00;99.90;;;;;;5021399;28;20464;-75
2023/03/11 06:43:47;;;;;;;0.40;0.30;;;-0.60;99.90;;;;;;5016349;28;20439;-76
2023/03/11 06:46:22;;;;;;;0.20;0.20;;;-0.20;99.90;;;;;;5025189;28;20439;-76
2023/03/11 06:48:52;;;;;;;0.35;0.35;;;0.30;99.90;;;;;;5024686;28;20475;-76
2023/03/11 06:51:20;;;;;;;0.40;0.40;;;1.00;99.90;;;;;;5018670;28;20431;-76
2023/03/11 06:53:51;;;;;;;5.70;0.80;;;1.60;99.90;;;;;;5025482;28;20438;-76
2023/03/11 06:56:19;;;;;;;3.00;0.30;;;2.30;99.90;;;;;;5027217;28;20513;-76
2023/03/11 06:58:48;;;;;;;0.20;0.20;;;2.70;99.90;;;;;;5025110;28;20449;-76
2023/03/11 07:01:21;;;;;;;0.20;0.20;;;3.10;99.90;;;;;;5027897;28;20528;-74
2023/03/11 07:03:49;;;;;;;0.20;0.20;;;3.50;99.90;;;;;;5027673;28;20794;-74
2023/03/11 07:06:21;;;;;;;0.40;0.40;;;3.90;99.90;;;;;;5019513;28;20550;-74
2023/03/11 07:08:49;;;;;;;4.90;0.40;;;4.20;99.90;;;;;;5019171;28;20442;-74
2023/03/11 07:11:22;;;;;;;0.70;0.50;;;4.40;99.90;;;;;;5027707;28;20441;-74
2023/03/11 07:13:49;;;;;;;0.17;0.17;;;4.70;99.90;;;;;;5019041;28;20427;-74
2023/03/11 07:16:21;;;;;;;2.60;0.80;;;4.80;99.90;;;;;;5026138;28;20431;-74
2023/03/11 07:18:50;;;;;;;0.40;0.40;;;5.00;99.90;;;;;;5027167;28;20463;-74
2023/03/11 07:21:19;;;;;;;0.20;0.20;;;5.30;99.90;;;;;;5027791;28;20831;-74
2023/03/11 07:23:48;;;;;;;0.20;0.20;;;5.60;99.90;;;;;;5019796;28;20513;-74
2023/03/11 07:26:16;;;;;;;0.15;0.15;;;5.60;99.90;;;;;;5022880;28;20980;-74
2023/03/11 07:28:43;;;;;;;0.20;0.20;;;5.60;99.90;;;;;;5021173;28;20431;-74
2023/03/11 07:31:24;;;;;;;0.50;0.40;;;5.60;99.90;;;;;;5025881;28;20435;-74
2023/03/11 07:33:51;;;;;;;0.60;0.60;;;5.30;99.90;;;;;;5024403;28;20436;-73
2023/03/11 07:36:21;;;;;;;0.30;0.30;;;5.20;99.90;;;;;;5031034;28;20431;-74
2023/03/11 07:38:53;;;;;;;0.40;0.40;;;5.20;99.90;;;;;;5024636;28;20500;-73
2023/03/11 07:41:22;;;;;;;0.20;0.20;;;5.20;99.90;;;;;;5028140;28;20430;-73
2023/03/11 07:43:48;;;;;;;0.73;0.63;;;5.10;99.90;;;;;;5023839;28;20529;-73
2023/03/11 07:46:17;;;;;;;0.20;0.20;;;5.10;99.90;;;;;;5025106;28;20518;-73
2023/03/11 07:48:44;;;;;;;0.13;0.13;;;5.00;99.90;;;;;;5022965;28;20434;-74
2023/03/11 07:51:13;;;;;;;0.20;0.20;;;5.10;99.90;;;;;;5028841;28;20439;-73
2023/03/11 07:53:40;;;;;;;0.38;0.38;;;5.50;99.90;;;;;;5020747;28;20423;-74
2023/03/11 07:56:11;;;;;;;0.20;0.20;;;5.60;99.90;;;;;;5004561;28;20434;-73
2023/03/11 07:58:39;;;;;;;1.00;0.60;;;5.50;99.90;;;;;;5020876;28;20933;-73
2023/03/11 08:01:15;;;;;;;0.70;0.70;;;5.40;99.90;;;;;;5022105;28;20442;-73
2023/03/11 08:03:46;;;;;;;0.22;0.22;;;5.50;99.90;;;;;;5020155;28;20442;-73
2023/03/11 08:06:15;;;;;;;0.20;0.20;;;5.70;99.90;;;;;;5017618;28;20926;-73
2023/03/11 08:08:44;;;;;;;0.40;0.40;;;5.90;99.90;;;;;;5021008;28;20426;-73
2023/03/11 08:11:14;;;;;;;3.90;0.60;;;6.10;99.90;;;;;;5016886;28;20436;-73
2023/03/11 08:13:42;;;;;;;0.10;0.10;;;6.00;99.90;;;;;;5025903;28;20901;-72
2023/03/11 08:16:12;;;;;;;0.60;0.40;;;6.00;99.90;;;;;;5022015;28;20462;-72
2023/03/11 08:18:39;;;;;;;0.10;0.10;;;6.10;99.90;;;;;;5026235;28;20431;-73
2023/03/11 08:21:08;;;;;;;0.20;0.20;;;6.00;99.90;;;;;;5021219;28;21542;-72
2023/03/11 08:23:35;;;;;;;0.20;0.20;;;5.80;99.90;;;;;;5026151;28;20439;-74
2023/03/11 08:26:07;;;;;;;0.22;0.22;;;5.80;99.90;;;;;;5024021;28;20443;-73
2023/03/11 08:28:34;;;;;;;0.20;0.20;;;5.90;99.90;;;;;;5024261;28;20453;-73
2023/03/11 08:31:02;;;;;;;0.38;0.30;;;6.20;99.90;;;;;;5026635;28;20462;-73
2023/03/11 08:33:29;;;;;;;0.20;0.20;;;6.20;99.90;;;;;;5027045;28;20773;-73
2023/03/11 08:35:55;;;;;;;0.30;0.20;;;6.00;99.90;;;;;;5020481;28;21287;-73
2023/03/11 08:38:22;;;;;;;0.17;0.17;;;5.80;99.90;;;;;;5025813;28;20802;-73
2023/03/11 08:40:49;;;;;;;0.20;0.20;;;5.20;99.90;;;;;;5031944;28;20985;-73
2023/03/11 08:43:16;;;;;;;0.20;0.20;;;4.90;99.90;;;;;;5017954;28;20434;-74
2023/03/11 08:45:46;;;;;;;0.20;0.20;;;4.90;99.90;;;;;;5021846;28;20489;-73
2023/03/11 08:48:12;;;;;;;0.20;0.20;;;4.90;99.90;;;;;;5023422;28;20447;-73
2023/03/11 08:50:42;;;;;;;3.60;0.43;;;4.70;99.90;;;;;;5026370;28;20434;-74
2023/03/11 08:53:21;;;;;;;0.20;0.20;;;4.80;99.90;;;;;;5027989;28;20435;-73
2023/03/11 08:55:51;;;;;;;0.20;0.20;;;5.30;99.90;;;;;;5028509;28;20954;-74
2023/03/11 08:58:21;;;;;;;0.13;0.13;;;5.80;99.90;;;;;;5032158;28;20431;-74
2023/03/11 09:00:48;;;;;;;1.40;0.10;;;6.20;99.90;;;;;;5033930;28;20438;-74
2023/03/11 09:03:15;;;;;;;0.30;0.30;;;6.10;99.90;;;;;;5036803;28;20430;-74
2023/03/11 09:05:42;;;;;;;1.30;0.20;;;6.10;99.90;;;;;;5029088;28;20452;-73
2023/03/11 09:08:11;;;;;;;0.30;0.30;;;6.20;99.90;;;;;;5034645;28;20523;-74
2023/03/11 09:10:38;;;;;;;0.40;0.40;;;6.30;99.90;;;;;;5030834;28;20434;-73
2023/03/11 09:13:05;;;;;;;0.10;0.10;;;6.10;99.90;;;;;;5035155;28;21113;-74
2023/03/11 09:15:32;;;;;;;2.80;0.65;;;6.10;99.90;;;;;;5029266;28;20422;-76
2023/03/11 09:17:59;;;;;;;0.32;0.32;;;6.00;99.90;;;;;;5033586;28;20513;-74
2023/03/11 09:20:25;;;;;;;0.40;0.40;;;5.60;99.90;;;;;;5034172;28;20434;-74
2023/03/11 09:22:52;;;;;;;5.60;0.68;;;5.30;99.90;;;;;;5031503;28;20697;-74
2023/03/11 09:25:22;;;;;;;0.17;0.17;;;5.10;99.90;;;;;;5029936;28;20774;-74
2023/03/11 09:27:49;;;;;;;0.17;0.17;;;4.90;99.90;;;;;;5028461;28;20529;-73
2023/03/11 09:30:16;;;;;;;0.20;0.20;;;5.10;99.90;;;;;;5032158;28;20438;-71
2023/03/11 09:32:43;;;;;;;0.10;0.10;;;5.40;99.90;;;;;;5025020;28;20443;-72
2023/03/11 09:35:10;;;;;;;0.10;0.10;;;5.80;99.90;;;;;;5029548;28;20434;-70
2023/03/11 09:37:36;;;;;;;0.20;0.20;;;6.30;99.90;;;;;;5025447;28;20452;-75
2023/03/11 09:40:03;;;;;;;3.90;0.40;;;6.30;99.90;;;;;;5030669;28;20426;-75
2023/03/11 09:42:43;;;;;;;1.60;0.30;;;6.30;99.90;;;;;;5037009;28;20438;-75
2023/03/11 09:45:33;;;;;;;0.17;0.17;;;6.10;99.90;;;;;;5027555;28;21147;-75
2023/03/11 09:48:03;;;;;;;0.28;0.28;;;5.90;99.90;;;;;;5032896;28;20935;-75
2023/03/11 09:51:21;;;;;;;0.20;0.20;;;5.80;99.90;;;;;;5033939;28;20447;-74
2023/03/11 09:53:58;;;;;;;0.20;0.20;;;6.10;99.90;;;;;;5052737;28;20524;-75
2023/03/11 09:56:25;;;;;;;0.30;0.30;;;6.20;99.90;;;;;;5052927;28;20431;-75
2023/03/11 09:58:55;;;;;;;0.30;0.25;;;6.40;99.90;;;;;;5052601;28;20440;-75
2023/03/11 10:01:29;;;;;;;0.40;0.25;;;6.40;99.90;;;;;;5041730;28;20440;-75
2023/03/11 10:04:03;;;;;;;0.10;0.10;;;6.40;99.90;;;;;;5049201;28;20534;-75
2023/03/11 10:06:30;;;;;;;0.30;0.30;;;6.20;99.90;;;;;;5049200;28;20433;-75
2023/03/11 10:09:22;;;;;;;0.20;0.20;;;6.30;99.90;;;;;;5050038;28;20502;-75
2023/03/11 10:12:20;;;;;;;0.40;0.40;;;6.70;99.90;;;;;;5046867;28;20433;-76
2023/03/11 10:15:10;;;;;;;0.30;0.30;;;7.90;99.90;;;;;;5046875;28;20425;-75
2023/03/11 10:18:13;;;;;;;0.10;0.10;;;8.50;99.90;;;;;;5049937;28;20465;-75
2023/03/11 10:20:53;;;;;;;0.30;0.30;;;;;;;;;;5046459;28;20431;-75
2023/03/11 10:23:30;;;;;;;0.30;0.30;;;;;;;;;;5043107;28;20444;-75
2023/03/11 10:26:16;;;;;;;0.40;0.40;;;;;;;;;;5029190;28;20429;-75
2023/03/11 10:28:55;;;;;;;0.20;0.20;;;;;;;;;;5026268;28;20435;-73
2023/03/11 10:31:39;;;;;;;0.30;0.30;;;;;;;;;;5020857;28;20445;-70
2023/03/11 10:34:17;;;;;;;0.20;0.20;;;;;;;;;;5019519;28;20440;-69
2023/03/11 10:36:59;;;;;;;0.10;0.10;;;;;;;;;;5016240;28;20857;-69
2023/03/11 10:39:26;;;;;;;0.30;0.20;;;;;;;;;;5022704;28;21016;-70
2023/03/11 10:41:55;;;;;;;5.90;2.80;;;;;;;;;;5012549;28;20438;-70
2023/03/11 10:44:42;;;;;;;4.85;1.75;;;;;;;;;;5020403;28;20515;-70
2023/03/11 10:47:20;;;;;;;37.97;16.10;;;;;;;;;;5014575;28;20441;-70
2023/03/11 10:49:47;;;;;;;0.95;0.47;;;;;;;;;;5017099;28;20431;-70
2023/03/11 10:52:14;;;;;;;15.52;7.03;;;;;;;;;;5012973;28;20953;-71
2023/03/11 10:54:45;;;;;;;0.10;0.10;;;;;;;;;;5018538;28;20430;-72
2023/03/11 10:57:23;;;;;;;3.80;3.40;;;;;;;;;;5015651;28;20427;-71
2023/03/11 10:59:57;;;;;;;1.90;0.38;;;;;;;;;;5020578;28;20439;-71
2023/03/11 11:02:28;;;;;;;0.30;0.30;;;8.10;99.90;;;;;;5025009;28;20445;-71
2023/03/11 11:05:17;;;;;;;0.43;0.43;;;8.40;99.90;;;;;;5026282;28;20439;-72
2023/03/11 11:07:49;;;;;;;0.30;0.30;;;8.60;99.90;;;;;;5027004;28;20431;-71
2023/03/11 11:10:22;;;;;;;0.40;0.20;;;8.70;99.90;;;;;;5022962;28;20441;-71
2023/03/11 11:12:56;;;;;;;1.48;1.27;;;8.60;99.90;;;;;;5022578;28;20529;-74
2023/03/11 11:15:25;;;;;;;0.60;0.60;;;8.60;99.90;;;;;;5025382;28;20806;-72
2023/03/11 11:17:55;;;;;;;0.40;0.40;;;8.70;99.90;;;;;;5019732;28;20433;-72
2023/03/11 11:20:23;;;;;;;0.25;0.25;;;8.30;99.90;;;;;;5026301;28;20435;-72
2023/03/11 11:22:59;;;;;;;1.70;0.40;;;7.80;99.90;;;;;;5015723;28;20442;-72
2023/03/11 11:25:42;;;;;;;0.20;0.20;;;7.50;99.90;;;;;;5023971;28;20442;-72
2023/03/11 11:28:16;;;;;;;0.20;0.20;;;7.30;99.90;;;;;;5021154;28;20454;-72
2023/03/11 11:30:58;;;;;;;0.65;0.40;;;7.30;99.90;;;;;;5015666;28;20439;-72
2023/03/11 11:33:37;;;;;;;0.45;0.45;;;7.20;99.90;;;;;;5022257;28;20481;-71
2023/03/11 11:36:05;;;;;;;0.20;0.20;;;;;;;;;;5026533;28;20441;-72
2023/03/11 11:38:36;;;;;;;0.20;0.20;;;;;;;;;;5021604;28;20462;-72
2023/03/11 11:41:03;;;;;;;0.40;0.40;;;;;;;;;;5018194;28;20427;-72
2023/03/11 11:43:46;;;;;;;0.70;0.30;;;;;;;;;;5025737;28;20441;-72
2023/03/11 11:46:18;;;;;;;0.20;0.20;;;;;;;;;;5018089;28;20515;-72
2023/03/11 11:48:55;;;;;;;0.20;0.20;;;;;;;;;;5020648;28;21216;-72
2023/03/11 11:51:29;;;;;;;2.60;0.40;;;;;;;;;;5025357;28;20433;-72
2023/03/11 11:54:17;;;;;;;0.28;0.28;;;;;;;;;;5029707;28;20434;-72
2023/03/11 11:56:47;;;;;;;0.30;0.30;;;;;;;;;;5022041;28;20439;-72
2023/03/11 11:59:19;;;;;;;0.30;0.30;;;;;;;;;;5034224;28;20430;-72
2023/03/11 12:01:59;;;;;;;0.10;0.10;;;;;;;;;;5018645;28;20430;-71
2023/03/11 12:04:29;;;;;;;0.30;0.20;;;;;;;;;;5027634;28;21027;-71
2023/03/11 12:06:56;;;;;;;0.60;0.30;;;;;;;;;;5030052;28;20433;-71
2023/03/11 12:09:30;;;;;;;3.60;0.50;;;;;;;;;;5026702;28;20518;-71
2023/03/11 12:12:07;;;;;;;0.32;0.32;;;;;;;;;;5017561;28;20472;-75
2023/03/11 12:14:39;;;;;;;0.28;0.28;;;;;;;;;;5018535;28;20429;-75
2023/03/11 12:17:07;;;;;;;0.40;0.40;;;;;;;;;;5024155;28;20429;-75
2023/03/11 12:19:41;;;;;;;0.50;0.50;;;;;;;;;;5020722;28;20889;-75
2023/03/11 12:22:22;;;;;;;0.20;0.20;;;;;;;;;;5021238;28;20554;-75
2023/03/11 12:25:04;;;;;;;0.20;0.20;;;;;;;;;;5025786;28;20438;-75
2023/03/11 12:27:40;;;;;;;0.30;0.30;;;;;;;;;;5016753;28;20456;-75
2023/03/11 12:30:35;;;;;;;0.60;0.40;;;;;;;;;;5024036;28;20480;-75
2023/03/11 12:33:08;;;;;;;0.50;0.20;;;;;;;;;;5022785;28;20434;-75
2023/03/11 12:35:36;;;;;;;0.10;0.10;;;;;;;;;;5016807;28;20907;-75
2023/03/11 12:38:06;;;;;;;0.30;0.30;;;;;;;;;;5027318;28;20485;-75
2023/03/11 12:40:49;;;;;;;0.30;0.30;;;7.10;99.90;;;;;;5024937;28;20430;-75
2023/03/11 12:43:32;;;;;;;3.10;0.40;;;8.70;99.90;;;;;;5021031;28;20518;-75
2023/03/11 12:46:00;;;;;;;0.28;0.28;;;9.20;99.90;;;;;;5021130;28;20438;-75
2023/03/11 12:48:40;;;;;;;0.40;0.40;;;9.00;99.90;;;;;;5014723;28;20462;-75
2023/03/11 12:51:33;;;;;;;0.10;0.10;;;9.30;99.90;;;;;;5024117;28;20508;-75
2023/03/11 12:55:09;;;;;;;1.40;0.60;;;9.10;99.90;;;;;;5015514;28;20431;-75
2023/03/11 12:57:47;;;;;;;0.73;0.73;;;9.00;99.90;;;;;;4966740;28;20487;-75
2023/03/11 13:00:36;;;;;;;1.50;1.30;;;9.10;99.90;;;;;;4962127;28;20432;-75
2023/03/11 13:03:17;;;;;;;0.32;0.32;;;8.90;99.90;;;;;;4966643;28;20561;-75
2023/03/11 13:06:02;;;;;;;1.10;0.28;;;8.60;99.90;;;;;;4963787;28;20439;-75
2023/03/11 13:08:56;;;;;;;0.22;0.22;;;8.20;99.90;;;;;;4960204;28;20473;-75
2023/03/11 13:11:32;;;;;;;1.65;0.70;;;7.70;99.90;;;;;;4967277;28;21176;-75
2023/03/11 13:14:17;;;;;;;0.22;0.22;;;7.40;99.90;;;;;;4965761;28;20485;-75
2023/03/11 13:16:44;;;;;;;0.28;0.28;;;7.20;99.90;;;;;;4963347;28;20436;-75
2023/03/11 13:19:27;;;;;;;2.83;0.33;;;;;;;;;;4968266;28;20431;-75
2023/03/11 13:21:57;;;;;;;1.17;0.50;;;;;;;;;;4967958;28;20474;-75
2023/03/11 13:24:33;;;;;;;0.40;0.40;;;7.00;99.90;;;;;;4961801;28;20463;-75
2023/03/11 13:27:05;;;;;;;0.20;0.20;;;6.20;99.90;;;;;;4969453;28;20436;-75
2023/03/11 13:29:51;;;;;;;0.38;0.38;;;;;;;;;;4961485;28;21044;-75
2023/03/11 13:32:21;;;;;;;0.40;0.40;;;;;;;;;;4964076;28;20622;-75